sensor_id;sensor_type;location;lat;lon;timestamp;pressure;altitude;pressure_sealevel;temperature;humidity
46087;BME280;31824;49.648;8.640;2022-09-09T00:02:48;99839.44;;;17.62;100.00
46087;BME280;31824;49.648;8.640;2022-09-09T00:05:59;99848.03;;;17.58;100.00
46087;BME280;31824;49.648;8.640;2022-09-09T00:09:04;99845.13;;;17.68;100.00
46087;BME280;31824;49.648;8.640;2022-09-09T00:12:12;99837.22;;;17.69;100.00
46087;BME280;31824;49.648;8.640;2022-09-09T00:15:19;99827.75;;;17.75;100.00
46087;BME280;31824;49.648;8.640;2022-09-09T00:18:24;99825.47;;;17.81;100.00
46087;BME280;31824;49.648;8.640;2022-09-09T00:21:33;99827.63;;;17.88;100.00
46087;BME280;31824;49.648;8.640;2022-09-09T00:24:39;99837.28;;;17.86;100.00
46087;BME280;31824;49.648;8.640;2022-09-09T00:27:47;99834.09;;;17.77;100.00
46087;BME280;31824;49.648;8.640;2022-09-09T00:30:49;99832.34;;;17.77;100.00
46087;BME280;31824;49.648;8.640;2022-09-09T00:33:52;99824.38;;;17.77;100.00
46087;BME280;31824;49.648;8.640;2022-09-09T00:36:55;99836.09;;;17.81;100.00
46087;BME280;31824;49.648;8.640;2022-09-09T00:39:59;99835.69;;;17.89;100.00
46087;BME280;31824;49.648;8.640;2022-09-09T00:43:15;99833.28;;;17.93;100.00
46087;BME280;31824;49.648;8.640;2022-09-09T00:46:49;99835.44;;;18.00;100.00
46087;BME280;31824;49.648;8.640;2022-09-09T00:50:00;99832.38;;;18.09;100.00
46087;BME280;31824;49.648;8.640;2022-09-09T00:53:14;99838.94;;;18.15;100.00
46087;BME280;31824;49.648;8.640;2022-09-09T00:56:25;99835.69;;;18.04;100.00
46087;BME280;31824;49.648;8.640;2022-09-09T00:59:32;99831.72;;;18.13;100.00
46087;BME280;31824;49.648;8.640;2022-09-09T01:02:46;99831.38;;;18.07;100.00
46087;BME280;31824;49.648;8.640;2022-09-09T01:05:57;99848.56;;;17.97;100.00
46087;BME280;31824;49.648;8.640;2022-09-09T01:09:09;99842.50;;;17.99;100.00
46087;BME280;31824;49.648;8.640;2022-09-09T01:12:15;99836.81;;;17.93;100.00
46087;BME280;31824;49.648;8.640;2022-09-09T01:15:22;99833.28;;;17.93;100.00
46087;BME280;31824;49.648;8.640;2022-09-09T01:18:28;99836.00;;;17.94;100.00
46087;BME280;31824;49.648;8.640;2022-09-09T01:21:35;99831.88;;;17.84;100.00
46087;BME280;31824;49.648;8.640;2022-09-09T01:24:42;99832.53;;;17.80;100.00
46087;BME280;31824;49.648;8.640;2022-09-09T01:27:55;99831.81;;;17.83;100.00
46087;BME280;31824;49.648;8.640;2022-09-09T01:30:58;99825.22;;;17.76;100.00
46087;BME280;31824;49.648;8.640;2022-09-09T01:34:09;99829.06;;;17.66;100.00
46087;BME280;31824;49.648;8.640;2022-09-09T01:37:13;99834.84;;;17.59;100.00
46087;BME280;31824;49.648;8.640;2022-09-09T01:40:15;99841.91;;;17.59;100.00
46087;BME280;31824;49.648;8.640;2022-09-09T01:43:19;99845.66;;;17.47;100.00
46087;BME280;31824;49.648;8.640;2022-09-09T01:46:22;99843.28;;;17.52;100.00
46087;BME280;31824;49.648;8.640;2022-09-09T01:49:24;99849.50;;;17.52;100.00
46087;BME280;31824;49.648;8.640;2022-09-09T01:52:26;99846.66;;;17.64;100.00
46087;BME280;31824;49.648;8.640;2022-09-09T01:55:31;99847.78;;;17.68;100.00
46087;BME280;31824;49.648;8.640;2022-09-09T01:58:47;99840.25;;;17.61;100.00
46087;BME280;31824;49.648;8.640;2022-09-09T02:02:05;99834.31;;;17.50;100.00
46087;BME280;31824;49.648;8.640;2022-09-09T02:05:17;99844.66;;;17.45;100.00
46087;BME280;31824;49.648;8.640;2022-09-09T02:08:27;99840.25;;;17.46;100.00
46087;BME280;31824;49.648;8.640;2022-09-09T02:11:37;99841.84;;;17.27;100.00
46087;BME280;31824;49.648;8.640;2022-09-09T02:14:55;99848.78;;;17.40;100.00
46087;BME280;31824;49.648;8.640;2022-09-09T02:17:58;99845.66;;;17.47;100.00
46087;BME280;31824;49.648;8.640;2022-09-09T02:21:03;99841.84;;;17.42;100.00
46087;BME280;31824;49.648;8.640;2022-09-09T02:24:08;99844.66;;;17.45;100.00
46087;BME280;31824;49.648;8.640;2022-09-09T02:27:18;99840.56;;;17.35;100.00
46087;BME280;31824;49.648;8.640;2022-09-09T02:30:22;99844.28;;;17.39;100.00
46087;BME280;31824;49.648;8.640;2022-09-09T02:33:33;99848.78;;;17.40;100.00
46087;BME280;31824;49.648;8.640;2022-09-09T02:36:40;99852.91;;;17.35;100.00
46087;BME280;31824;49.648;8.640;2022-09-09T02:39:44;99852.25;;;17.39;100.00
46087;BME280;31824;49.648;8.640;2022-09-09T02:42:49;99846.03;;;17.38;100.00
46087;BME280;31824;49.648;8.640;2022-09-09T02:46:02;99850.72;;;17.28;100.00
46087;BME280;31824;49.648;8.640;2022-09-09T02:49:09;99849.50;;;17.23;100.00
46087;BME280;31824;49.648;8.640;2022-09-09T02:52:15;99845.78;;;17.19;100.00
46087;BME280;31824;49.648;8.640;2022-09-09T02:55:24;99847.78;;;17.23;100.00
46087;BME280;31824;49.648;8.640;2022-09-09T02:58:31;99850.16;;;17.18;100.00
46087;BME280;31824;49.648;8.640;2022-09-09T03:01:39;99851.72;;;17.15;100.00
46087;BME280;31824;49.648;8.640;2022-09-09T03:04:43;99851.91;;;17.18;100.00
46087;BME280;31824;49.648;8.640;2022-09-09T03:07:47;99850.06;;;17.17;100.00
46087;BME280;31824;49.648;8.640;2022-09-09T03:10:51;99844.38;;;17.11;100.00
46087;BME280;31824;49.648;8.640;2022-09-09T03:13:55;99827.00;;;17.16;100.00
46087;BME280;31824;49.648;8.640;2022-09-09T03:17:04;99840.09;;;17.13;100.00
46087;BME280;31824;49.648;8.640;2022-09-09T03:20:11;99827.38;;;17.07;100.00
46087;BME280;31824;49.648;8.640;2022-09-09T03:23:13;99836.50;;;16.97;100.00
46087;BME280;31824;49.648;8.640;2022-09-09T03:26:17;99842.53;;;16.95;100.00
46087;BME280;31824;49.648;8.640;2022-09-09T03:29:20;99840.69;;;16.94;100.00
46087;BME280;31824;49.648;8.640;2022-09-09T03:32:24;99841.44;;;16.91;100.00
46087;BME280;31824;49.648;8.640;2022-09-09T03:35:30;99842.25;;;16.90;100.00
46087;BME280;31824;49.648;8.640;2022-09-09T03:38:32;99855.53;;;16.77;100.00
46087;BME280;31824;49.648;8.640;2022-09-09T03:41:34;99851.34;;;16.80;100.00
46087;BME280;31824;49.648;8.640;2022-09-09T03:44:36;99854.44;;;16.73;100.00
46087;BME280;31824;49.648;8.640;2022-09-09T03:47:40;99848.13;;;16.71;100.00
46087;BME280;31824;49.648;8.640;2022-09-09T03:50:44;99836.94;;;16.62;100.00
46087;BME280;31824;49.648;8.640;2022-09-09T03:53:46;99850.13;;;16.75;100.00
46087;BME280;31824;49.648;8.640;2022-09-09T03:56:49;99848.13;;;16.71;100.00
46087;BME280;31824;49.648;8.640;2022-09-09T03:59:50;99839.34;;;16.72;100.00
46087;BME280;31824;49.648;8.640;2022-09-09T04:02:53;99831.53;;;16.60;100.00
46087;BME280;31824;49.648;8.640;2022-09-09T04:05:57;99840.75;;;16.52;100.00
46087;BME280;31824;49.648;8.640;2022-09-09T04:09:01;99844.44;;;16.54;100.00
46087;BME280;31824;49.648;8.640;2022-09-09T04:12:05;99846.75;;;16.49;100.00
46087;BME280;31824;49.648;8.640;2022-09-09T04:15:09;99851.88;;;16.46;100.00
46087;BME280;31824;49.648;8.640;2022-09-09T04:18:14;99849.09;;;16.30;100.00
46087;BME280;31824;49.648;8.640;2022-09-09T04:21:21;99856.91;;;16.42;100.00
46087;BME280;31824;49.648;8.640;2022-09-09T04:24:23;99850.44;;;16.51;100.00
46087;BME280;31824;49.648;8.640;2022-09-09T04:27:24;99859.22;;;16.50;100.00
46087;BME280;31824;49.648;8.640;2022-09-09T04:30:28;99849.50;;;16.36;100.00
46087;BME280;31824;49.648;8.640;2022-09-09T04:33:31;99840.72;;;16.24;100.00
46087;BME280;31824;49.648;8.640;2022-09-09T04:36:37;99845.31;;;16.26;100.00
46087;BME280;31824;49.648;8.640;2022-09-09T04:39:40;99844.91;;;16.33;100.00
46087;BME280;31824;49.648;8.640;2022-09-09T04:42:42;99852.59;;;16.44;100.00
46087;BME280;31824;49.648;8.640;2022-09-09T04:45:48;99865.59;;;16.39;100.00
46087;BME280;31824;49.648;8.640;2022-09-09T04:48:52;99856.81;;;16.40;100.00
46087;BME280;31824;49.648;8.640;2022-09-09T04:51:55;99871.78;;;16.40;100.00
46087;BME280;31824;49.648;8.640;2022-09-09T04:54:58;99873.09;;;16.46;100.00
46087;BME280;31824;49.648;8.640;2022-09-09T04:58:03;99878.03;;;16.40;100.00
46087;BME280;31824;49.648;8.640;2022-09-09T05:01:06;99872.59;;;16.38;100.00
46087;BME280;31824;49.648;8.640;2022-09-09T05:04:11;99876.81;;;16.35;100.00
46087;BME280;31824;49.648;8.640;2022-09-09T05:07:13;99890.25;;;16.38;100.00
46087;BME280;31824;49.648;8.640;2022-09-09T05:10:15;99889.63;;;16.42;100.00
46087;BME280;31824;49.648;8.640;2022-09-09T05:13:20;99885.09;;;16.54;100.00
46087;BME280;31824;49.648;8.640;2022-09-09T05:16:23;99883.88;;;16.49;100.00
46087;BME280;31824;49.648;8.640;2022-09-09T05:19:26;99888.91;;;16.45;100.00
46087;BME280;31824;49.648;8.640;2022-09-09T05:22:28;99892.88;;;16.51;100.00
46087;BME280;31824;49.648;8.640;2022-09-09T05:25:30;99890.31;;;16.53;100.00
46087;BME280;31824;49.648;8.640;2022-09-09T05:28:34;99886.16;;;16.43;100.00
46087;BME280;31824;49.648;8.640;2022-09-09T05:31:36;99896.53;;;16.53;100.00
46087;BME280;31824;49.648;8.640;2022-09-09T05:34:44;99908.59;;;16.48;100.00
46087;BME280;31824;49.648;8.640;2022-09-09T05:37:46;99904.38;;;16.52;100.00
46087;BME280;31824;49.648;8.640;2022-09-09T05:40:49;99901.09;;;16.56;100.00
46087;BME280;31824;49.648;8.640;2022-09-09T05:43:51;99907.63;;;16.61;100.00
46087;BME280;31824;49.648;8.640;2022-09-09T05:46:54;99909.22;;;16.73;100.00
46087;BME280;31824;49.648;8.640;2022-09-09T05:49:57;99916.34;;;16.74;100.00
46087;BME280;31824;49.648;8.640;2022-09-09T05:52:59;99914.00;;;16.78;100.00
46087;BME280;31824;49.648;8.640;2022-09-09T05:56:02;99916.44;;;16.75;100.00
46087;BME280;31824;49.648;8.640;2022-09-09T05:59:07;99911.06;;;16.74;100.00
46087;BME280;31824;49.648;8.640;2022-09-09T06:02:08;99910.81;;;16.84;100.00
46087;BME280;31824;49.648;8.640;2022-09-09T06:05:13;99912.97;;;16.90;100.00
46087;BME280;31824;49.648;8.640;2022-09-09T06:08:15;99913.16;;;16.93;100.00
46087;BME280;31824;49.648;8.640;2022-09-09T06:11:19;99917.75;;;16.95;100.00
46087;BME280;31824;49.648;8.640;2022-09-09T06:14:21;99914.81;;;16.91;100.00
46087;BME280;31824;49.648;8.640;2022-09-09T06:17:24;99923.44;;;17.01;100.00
46087;BME280;31824;49.648;8.640;2022-09-09T06:20:28;99916.00;;;16.96;100.00
46087;BME280;31824;49.648;8.640;2022-09-09T06:23:32;99915.41;;;17.00;100.00
46087;BME280;31824;49.648;8.640;2022-09-09T06:26:36;99926.34;;;16.91;100.00
46087;BME280;31824;49.648;8.640;2022-09-09T06:29:38;99915.81;;;16.93;100.00
46087;BME280;31824;49.648;8.640;2022-09-09T06:32:41;99920.69;;;17.00;100.00
46087;BME280;31824;49.648;8.640;2022-09-09T06:35:52;99914.84;;;17.06;100.00
46087;BME280;31824;49.648;8.640;2022-09-09T06:38:55;99918.81;;;17.12;100.00
46087;BME280;31824;49.648;8.640;2022-09-09T06:41:57;99914.88;;;17.20;100.00
46087;BME280;31824;49.648;8.640;2022-09-09T06:45:22;99911.84;;;17.29;100.00
46087;BME280;31824;49.648;8.640;2022-09-09T06:48:32;99917.00;;;17.41;100.00
46087;BME280;31824;49.648;8.640;2022-09-09T06:51:37;99921.03;;;17.49;100.00
46087;BME280;31824;49.648;8.640;2022-09-09T06:54:48;99932.88;;;17.54;100.00
46087;BME280;31824;49.648;8.640;2022-09-09T06:57:53;99921.84;;;17.63;100.00
46087;BME280;31824;49.648;8.640;2022-09-09T07:01:03;99931.28;;;17.73;100.00
46087;BME280;31824;49.648;8.640;2022-09-09T07:04:08;99928.91;;;17.78;100.00
46087;BME280;31824;49.648;8.640;2022-09-09T07:07:20;99916.72;;;17.81;100.00
46087;BME280;31824;49.648;8.640;2022-09-09T07:10:26;99920.22;;;17.80;100.00
46087;BME280;31824;49.648;8.640;2022-09-09T07:13:29;99930.00;;;17.96;100.00
46087;BME280;31824;49.648;8.640;2022-09-09T07:16:31;99917.16;;;17.89;100.00
46087;BME280;31824;49.648;8.640;2022-09-09T07:19:38;99916.19;;;17.87;100.00
46087;BME280;31824;49.648;8.640;2022-09-09T07:22:44;99910.34;;;17.93;100.00
46087;BME280;31824;49.648;8.640;2022-09-09T07:25:47;99911.53;;;17.98;100.00
46087;BME280;31824;49.648;8.640;2022-09-09T07:28:51;99915.19;;;18.00;100.00
46087;BME280;31824;49.648;8.640;2022-09-09T07:31:53;99918.19;;;18.06;100.00
46087;BME280;31824;49.648;8.640;2022-09-09T07:35:00;99930.63;;;18.07;100.00
46087;BME280;31824;49.648;8.640;2022-09-09T07:38:04;99924.69;;;18.11;100.00
46087;BME280;31824;49.648;8.640;2022-09-09T07:41:10;99926.81;;;18.02;100.00
46087;BME280;31824;49.648;8.640;2022-09-09T07:44:17;99934.97;;;18.05;100.00
46087;BME280;31824;49.648;8.640;2022-09-09T07:47:22;99925.78;;;18.15;100.00
46087;BME280;31824;49.648;8.640;2022-09-09T07:50:26;99935.06;;;18.07;100.00
46087;BME280;31824;49.648;8.640;2022-09-09T07:53:29;99943.56;;;18.16;100.00
46087;BME280;31824;49.648;8.640;2022-09-09T07:56:33;99939.59;;;18.24;100.00
46087;BME280;31824;49.648;8.640;2022-09-09T07:59:35;99944.84;;;18.22;100.00
46087;BME280;31824;49.648;8.640;2022-09-09T08:02:38;99940.88;;;18.31;100.00
46087;BME280;31824;49.648;8.640;2022-09-09T08:05:40;99936.22;;;18.27;100.00
46087;BME280;31824;49.648;8.640;2022-09-09T08:08:44;99951.75;;;18.35;100.00
46087;BME280;31824;49.648;8.640;2022-09-09T08:11:48;99949.06;;;18.50;100.00
46087;BME280;31824;49.648;8.640;2022-09-09T08:14:51;99947.28;;;18.66;100.00
46087;BME280;31824;49.648;8.640;2022-09-09T08:17:57;99949.94;;;18.66;100.00
46087;BME280;31824;49.648;8.640;2022-09-09T08:21:05;99956.78;;;18.77;100.00
46087;BME280;31824;49.648;8.640;2022-09-09T08:24:09;99948.94;;;18.80;100.00
46087;BME280;31824;49.648;8.640;2022-09-09T08:27:12;99956.34;;;18.86;100.00
46087;BME280;31824;49.648;8.640;2022-09-09T08:30:14;99956.00;;;18.95;100.00
46087;BME280;31824;49.648;8.640;2022-09-09T08:33:16;99955.91;;;18.93;100.00
46087;BME280;31824;49.648;8.640;2022-09-09T08:36:20;99944.50;;;18.96;100.00
46087;BME280;31824;49.648;8.640;2022-09-09T08:39:26;99941.94;;;18.97;100.00
46087;BME280;31824;49.648;8.640;2022-09-09T08:42:35;99940.03;;;19.11;100.00
46087;BME280;31824;49.648;8.640;2022-09-09T08:45:46;99947.75;;;19.06;100.00
46087;BME280;31824;49.648;8.640;2022-09-09T08:48:56;99957.56;;;18.91;100.00
46087;BME280;31824;49.648;8.640;2022-09-09T08:52:01;99964.88;;;18.95;100.00
46087;BME280;31824;49.648;8.640;2022-09-09T08:55:21;99967.22;;;19.05;100.00
46087;BME280;31824;49.648;8.640;2022-09-09T08:58:28;99963.81;;;19.08;100.00
46087;BME280;31824;49.648;8.640;2022-09-09T09:01:52;99970.06;;;19.09;100.00
46087;BME280;31824;49.648;8.640;2022-09-09T09:05:10;99977.53;;;18.99;100.00
46087;BME280;31824;49.648;8.640;2022-09-09T09:08:25;99971.22;;;18.97;100.00
46087;BME280;31824;49.648;8.640;2022-09-09T09:11:36;99971.63;;;19.05;100.00
46087;BME280;31824;49.648;8.640;2022-09-09T09:14:40;99964.47;;;19.37;100.00
46087;BME280;31824;49.648;8.640;2022-09-09T09:17:45;99970.66;;;19.70;100.00
46087;BME280;31824;49.648;8.640;2022-09-09T09:20:55;99976.97;;;19.38;100.00
46087;BME280;31824;49.648;8.640;2022-09-09T09:24:01;99962.97;;;19.42;100.00
46087;BME280;31824;49.648;8.640;2022-09-09T09:27:12;99964.00;;;19.62;100.00
46087;BME280;31824;49.648;8.640;2022-09-09T09:30:19;99958.03;;;19.50;100.00
46087;BME280;31824;49.648;8.640;2022-09-09T09:33:45;99956.13;;;19.64;100.00
46087;BME280;31824;49.648;8.640;2022-09-09T09:36:53;99960.78;;;19.68;100.00
46087;BME280;31824;49.648;8.640;2022-09-09T09:39:55;99966.84;;;19.65;100.00
46087;BME280;31824;49.648;8.640;2022-09-09T09:43:03;99958.09;;;19.84;100.00
46087;BME280;31824;49.648;8.640;2022-09-09T09:46:20;99956.06;;;20.15;100.00
46087;BME280;31824;49.648;8.640;2022-09-09T09:49:26;99943.47;;;20.12;100.00
46087;BME280;31824;49.648;8.640;2022-09-09T09:52:29;99934.78;;;19.98;100.00
46087;BME280;31824;49.648;8.640;2022-09-09T09:55:34;99938.13;;;20.30;100.00
46087;BME280;31824;49.648;8.640;2022-09-09T09:58:49;99935.03;;;20.77;100.00
46087;BME280;31824;49.648;8.640;2022-09-09T10:02:05;99941.41;;;20.42;100.00
46087;BME280;31824;49.648;8.640;2022-09-09T10:05:14;99957.94;;;20.35;100.00
46087;BME280;31824;49.648;8.640;2022-09-09T10:08:20;99951.34;;;20.09;100.00
46087;BME280;31824;49.648;8.640;2022-09-09T10:11:30;99962.22;;;19.96;100.00
46087;BME280;31824;49.648;8.640;2022-09-09T10:14:40;99964.94;;;19.63;100.00
46087;BME280;31824;49.648;8.640;2022-09-09T10:17:54;99967.75;;;19.66;100.00
46087;BME280;31824;49.648;8.640;2022-09-09T10:21:08;99964.19;;;19.82;100.00
46087;BME280;31824;49.648;8.640;2022-09-09T10:24:26;99964.66;;;19.91;100.00
46087;BME280;31824;49.648;8.640;2022-09-09T10:27:38;99951.25;;;20.07;100.00
46087;BME280;31824;49.648;8.640;2022-09-09T10:30:55;99953.44;;;19.80;100.00
46087;BME280;31824;49.648;8.640;2022-09-09T10:34:06;99952.78;;;20.02;100.00
46087;BME280;31824;49.648;8.640;2022-09-09T10:37:30;99951.56;;;19.79;100.00
46087;BME280;31824;49.648;8.640;2022-09-09T10:40:39;99937.47;;;19.47;100.00
46087;BME280;31824;49.648;8.640;2022-09-09T10:44:15;99934.84;;;19.82;100.00
46087;BME280;31824;49.648;8.640;2022-09-09T10:47:36;99934.78;;;20.34;100.00
46087;BME280;31824;49.648;8.640;2022-09-09T10:50:51;99930.19;;;20.50;100.00
46087;BME280;31824;49.648;8.640;2022-09-09T10:54:13;99924.22;;;20.73;100.00
46087;BME280;31824;49.648;8.640;2022-09-09T10:57:27;99920.81;;;20.96;100.00
46087;BME280;31824;49.648;8.640;2022-09-09T11:00:37;99923.19;;;20.89;100.00
46087;BME280;31824;49.648;8.640;2022-09-09T11:03:43;99920.09;;;20.80;100.00
46087;BME280;31824;49.648;8.640;2022-09-09T11:06:49;99912.94;;;21.18;100.00
46087;BME280;31824;49.648;8.640;2022-09-09T11:09:59;99907.59;;;21.18;100.00
46087;BME280;31824;49.648;8.640;2022-09-09T11:13:05;99900.66;;;21.43;100.00
46087;BME280;31824;49.648;8.640;2022-09-09T11:16:19;99906.22;;;21.48;100.00
46087;BME280;31824;49.648;8.640;2022-09-09T11:19:29;99892.88;;;21.28;100.00
46087;BME280;31824;49.648;8.640;2022-09-09T11:22:37;99901.50;;;22.04;100.00
46087;BME280;31824;49.648;8.640;2022-09-09T11:25:42;99893.81;;;22.34;100.00
46087;BME280;31824;49.648;8.640;2022-09-09T11:29:01;99893.22;;;22.64;100.00
46087;BME280;31824;49.648;8.640;2022-09-09T11:32:21;99898.34;;;22.81;100.00
46087;BME280;31824;49.648;8.640;2022-09-09T11:35:37;99893.19;;;22.19;100.00
46087;BME280;31824;49.648;8.640;2022-09-09T11:38:45;99888.69;;;22.86;100.00
46087;BME280;31824;49.648;8.640;2022-09-09T11:41:48;99876.28;;;22.20;100.00
46087;BME280;31824;49.648;8.640;2022-09-09T11:44:50;99891.56;;;22.01;100.00
46087;BME280;31824;49.648;8.640;2022-09-09T11:47:53;99888.59;;;21.72;100.00
46087;BME280;31824;49.648;8.640;2022-09-09T11:51:03;99898.72;;;21.58;100.00
46087;BME280;31824;49.648;8.640;2022-09-09T11:54:27;99899.16;;;21.29;100.00
46087;BME280;31824;49.648;8.640;2022-09-09T11:57:33;99902.53;;;21.24;100.00
46087;BME280;31824;49.648;8.640;2022-09-09T12:00:38;99907.47;;;21.15;100.00
46087;BME280;31824;49.648;8.640;2022-09-09T12:03:43;99910.69;;;21.08;100.00
46087;BME280;31824;49.648;8.640;2022-09-09T12:06:50;99920.25;;;21.03;100.00
46087;BME280;31824;49.648;8.640;2022-09-09T12:09:56;99918.16;;;20.96;100.00
46087;BME280;31824;49.648;8.640;2022-09-09T12:13:08;99913.22;;;20.85;100.00
46087;BME280;31824;49.648;8.640;2022-09-09T12:19:27;99922.09;;;21.04;100.00
46087;BME280;31824;49.648;8.640;2022-09-09T12:22:37;99928.59;;;20.91;100.00
46087;BME280;31824;49.648;8.640;2022-09-09T12:25:53;99930.63;;;20.77;100.00
46087;BME280;31824;49.648;8.640;2022-09-09T12:29:05;99942.72;;;20.51;100.00
46087;BME280;31824;49.648;8.640;2022-09-09T12:32:15;99930.06;;;20.47;100.00
46087;BME280;31824;49.648;8.640;2022-09-09T12:35:21;99931.28;;;20.35;100.00
46087;BME280;31824;49.648;8.640;2022-09-09T12:38:32;99923.56;;;20.23;100.00
46087;BME280;31824;49.648;8.640;2022-09-09T12:41:35;99922.28;;;20.15;100.00
46087;BME280;31824;49.648;8.640;2022-09-09T12:44:37;99929.78;;;20.22;100.00
46087;BME280;31824;49.648;8.640;2022-09-09T12:47:43;99947.19;;;19.63;100.00
46087;BME280;31824;49.648;8.640;2022-09-09T12:50:49;99940.00;;;19.28;100.00
46087;BME280;31824;49.648;8.640;2022-09-09T12:53:54;99939.56;;;18.87;100.00
46087;BME280;31824;49.648;8.640;2022-09-09T12:56:57;99923.50;;;18.85;100.00
46087;BME280;31824;49.648;8.640;2022-09-09T13:00:05;99942.59;;;18.62;100.00
46087;BME280;31824;49.648;8.640;2022-09-09T13:03:16;99931.66;;;18.72;100.00
46087;BME280;31824;49.648;8.640;2022-09-09T13:06:21;99928.78;;;19.84;100.00
46087;BME280;31824;49.648;8.640;2022-09-09T13:09:31;99907.78;;;20.46;100.00
46087;BME280;31824;49.648;8.640;2022-09-09T13:12:33;99919.91;;;19.85;100.00
46087;BME280;31824;49.648;8.640;2022-09-09T13:15:35;99917.69;;;19.42;100.00
46087;BME280;31824;49.648;8.640;2022-09-09T13:18:40;99907.16;;;19.27;100.00
46087;BME280;31824;49.648;8.640;2022-09-09T13:21:43;99896.41;;;19.09;100.00
46087;BME280;31824;49.648;8.640;2022-09-09T13:24:47;99888.78;;;18.99;100.00
46087;BME280;31824;49.648;8.640;2022-09-09T13:27:56;99885.38;;;19.01;100.00
46087;BME280;31824;49.648;8.640;2022-09-09T13:30:59;99884.34;;;18.83;100.00
46087;BME280;31824;49.648;8.640;2022-09-09T13:34:11;99912.34;;;18.76;100.00
46087;BME280;31824;49.648;8.640;2022-09-09T13:37:21;99923.59;;;18.70;100.00
46087;BME280;31824;49.648;8.640;2022-09-09T13:40:25;99951.84;;;18.37;100.00
46087;BME280;31824;49.648;8.640;2022-09-09T13:43:30;99966.56;;;18.00;100.00
46087;BME280;31824;49.648;8.640;2022-09-09T13:46:34;99959.69;;;17.59;100.00
46087;BME280;31824;49.648;8.640;2022-09-09T13:49:37;99956.63;;;17.23;100.00
46087;BME280;31824;49.648;8.640;2022-09-09T13:52:38;99955.63;;;17.36;100.00
46087;BME280;31824;49.648;8.640;2022-09-09T13:55:42;99945.84;;;17.65;100.00
46087;BME280;31824;49.648;8.640;2022-09-09T13:58:44;99956.03;;;17.87;100.00
46087;BME280;31824;49.648;8.640;2022-09-09T14:01:47;99958.41;;;17.82;100.00
46087;BME280;31824;49.648;8.640;2022-09-09T14:04:50;99958.16;;;17.78;100.00
46087;BME280;31824;49.648;8.640;2022-09-09T14:07:57;99953.03;;;17.96;100.00
46087;BME280;31824;49.648;8.640;2022-09-09T14:11:00;99946.41;;;18.19;100.00
46087;BME280;31824;49.648;8.640;2022-09-09T14:14:02;99940.03;;;18.95;100.00
46087;BME280;31824;49.648;8.640;2022-09-09T14:17:04;99937.63;;;19.67;100.00
46087;BME280;31824;49.648;8.640;2022-09-09T14:20:10;99930.38;;;20.35;100.00
46087;BME280;31824;49.648;8.640;2022-09-09T14:23:13;99916.19;;;20.18;100.00
46087;BME280;31824;49.648;8.640;2022-09-09T14:26:17;99896.84;;;20.40;100.00
46087;BME280;31824;49.648;8.640;2022-09-09T14:29:20;99909.81;;;20.14;100.00
46087;BME280;31824;49.648;8.640;2022-09-09T14:32:22;99893.81;;;20.14;100.00
46087;BME280;31824;49.648;8.640;2022-09-09T14:35:23;99901.50;;;20.08;100.00
46087;BME280;31824;49.648;8.640;2022-09-09T14:38:29;99886.41;;;20.27;100.00
46087;BME280;31824;49.648;8.640;2022-09-09T14:41:33;99903.47;;;19.60;100.00
46087;BME280;31824;49.648;8.640;2022-09-09T14:44:35;99883.38;;;19.83;100.00
46087;BME280;31824;49.648;8.640;2022-09-09T14:47:37;99885.19;;;19.49;100.00
46087;BME280;31824;49.648;8.640;2022-09-09T14:50:39;99888.69;;;19.48;100.00
46087;BME280;31824;49.648;8.640;2022-09-09T14:53:42;99882.66;;;19.34;100.00
46087;BME280;31824;49.648;8.640;2022-09-09T14:56:46;99879.19;;;19.02;100.00
46087;BME280;31824;49.648;8.640;2022-09-09T14:59:49;99888.69;;;18.81;100.00
46087;BME280;31824;49.648;8.640;2022-09-09T15:02:52;99901.03;;;18.64;100.00
46087;BME280;31824;49.648;8.640;2022-09-09T15:05:54;99902.59;;;18.60;100.00
46087;BME280;31824;49.648;8.640;2022-09-09T15:08:56;99904.38;;;18.76;100.00
46087;BME280;31824;49.648;8.640;2022-09-09T15:12:03;99906.84;;;18.88;100.00
46087;BME280;31824;49.648;8.640;2022-09-09T15:15:07;99892.47;;;18.86;100.00
46087;BME280;31824;49.648;8.640;2022-09-09T15:18:09;99898.16;;;18.76;100.00
46087;BME280;31824;49.648;8.640;2022-09-09T15:21:13;99910.50;;;18.75;100.00
46087;BME280;31824;49.648;8.640;2022-09-09T15:24:15;99906.59;;;18.68;100.00
46087;BME280;31824;49.648;8.640;2022-09-09T15:27:20;99906.13;;;18.59;100.00
46087;BME280;31824;49.648;8.640;2022-09-09T15:30:22;99929.31;;;18.30;100.00
46087;BME280;31824;49.648;8.640;2022-09-09T15:33:23;99941.25;;;18.22;100.00
46087;BME280;31824;49.648;8.640;2022-09-09T15:36:26;99960.34;;;17.85;100.00
46087;BME280;31824;49.648;8.640;2022-09-09T15:39:30;99968.34;;;17.27;100.00
46087;BME280;31824;49.648;8.640;2022-09-09T15:42:37;99934.13;;;16.75;100.00
46087;BME280;31824;49.648;8.640;2022-09-09T15:45:39;99937.03;;;16.79;100.00
46087;BME280;31824;49.648;8.640;2022-09-09T15:48:40;99926.88;;;16.72;100.00
46087;BME280;31824;49.648;8.640;2022-09-09T15:51:43;99930.44;;;16.73;100.00
46087;BME280;31824;49.648;8.640;2022-09-09T15:54:45;99931.81;;;16.81;100.00
46087;BME280;31824;49.648;8.640;2022-09-09T15:57:49;99937.53;;;16.87;100.00
46087;BME280;31824;49.648;8.640;2022-09-09T16:00:50;99946.22;;;16.84;100.00
46087;BME280;31824;49.648;8.640;2022-09-09T16:03:53;99961.94;;;16.95;100.00
46087;BME280;31824;49.648;8.640;2022-09-09T16:06:57;99964.50;;;16.93;100.00
46087;BME280;31824;49.648;8.640;2022-09-09T16:09:59;99972.34;;;16.92;100.00
46087;BME280;31824;49.648;8.640;2022-09-09T16:13:02;99981.06;;;16.76;100.00
46087;BME280;31824;49.648;8.640;2022-09-09T16:16:05;99974.03;;;16.63;100.00
46087;BME280;31824;49.648;8.640;2022-09-09T16:19:09;99975.97;;;16.52;100.00